Time;durP1;ratioP1;P1;durP2;ratioP2;P2;SDS_P1;SDS_P2;PMS_P1;PMS_P2;Temp;Humidity;BMP_temperature;BMP_pressure;BME280_temperature;BME280_humidity;BME280_pressure;Samples;Min_cycle;Max_cycle;Signal;HPM_P1;HPM_P2
2021/10/09 00:00:54;;;;;;;;;;;23.90;38.40;;;;;;484069;246;1254;-73
2021/10/09 00:02:55;;;;;;;;;;;23.90;38.50;;;;;;484094;246;1106;-73
2021/10/09 00:04:56;;;;;;;;;;;23.90;38.50;;;;;;484096;246;1173;-74
2021/10/09 00:06:58;;;;;;;;;;;24.10;38.30;;;;;;483954;246;1087;-73
2021/10/09 00:08:59;;;;;;;;;;;24.10;38.10;;;;;;484020;246;945;-73
2021/10/09 00:11:01;;;;;;;;;;;23.90;38.00;;;;;;484062;246;1131;-73
2021/10/09 00:13:02;;;;;;;;;;;24.40;37.80;;;;;;484050;246;2141;-73
2021/10/09 00:15:03;;;;;;;;;;;23.90;38.10;;;;;;484073;246;943;-74
2021/10/09 00:17:05;;;;;;;;;;;24.10;38.00;;;;;;484087;246;1175;-73
2021/10/09 00:19:06;;;;;;;;;;;24.10;38.10;;;;;;484080;246;1255;-73
2021/10/09 00:21:07;;;;;;;;;;;24.00;38.10;;;;;;484092;246;1142;-74
2021/10/09 00:23:09;;;;;;;;;;;23.90;38.20;;;;;;484114;246;962;-73
2021/10/09 00:25:10;;;;;;;;;;;24.00;38.10;;;;;;484143;246;932;-73
2021/10/09 00:27:11;;;;;;;;;;;24.10;37.80;;;;;;484100;246;1259;-73
2021/10/09 00:29:13;;;;;;;;;;;24.30;37.70;;;;;;484144;246;1110;-73
2021/10/09 00:31:14;;;;;;;;;;;24.00;38.00;;;;;;484108;246;1187;-73
2021/10/09 00:33:15;;;;;;;;;;;24.00;38.00;;;;;;484068;246;2117;-73
2021/10/09 00:35:17;;;;;;;;;;;24.00;38.10;;;;;;484158;246;1196;-73
2021/10/09 00:37:18;;;;;;;;;;;23.80;38.10;;;;;;484145;246;1127;-73
2021/10/09 00:39:19;;;;;;;;;;;23.80;38.20;;;;;;484102;246;1066;-73
2021/10/09 00:41:21;;;;;;;;;;;23.50;38.70;;;;;;484073;246;1257;-73
2021/10/09 00:43:22;;;;;;;;;;;23.40;39.00;;;;;;484138;246;981;-73
2021/10/09 00:45:23;;;;;;;;;;;23.30;39.20;;;;;;484108;246;1210;-73
2021/10/09 00:47:25;;;;;;;;;;;23.40;39.20;;;;;;484134;246;1159;-73
2021/10/09 00:49:26;;;;;;;;;;;23.30;39.10;;;;;;484140;246;938;-73
2021/10/09 00:51:27;;;;;;;;;;;23.30;39.20;;;;;;484041;246;1244;-73
2021/10/09 00:53:29;;;;;;;;;;;23.40;39.00;;;;;;484055;246;2172;-73
2021/10/09 00:55:30;;;;;;;;;;;23.40;39.10;;;;;;484107;246;955;-73
2021/10/09 00:57:31;;;;;;;;;;;23.50;38.70;;;;;;484061;246;1077;-73
2021/10/09 00:59:33;;;;;;;;;;;23.80;38.40;;;;;;484072;246;931;-73
2021/10/09 01:01:34;;;;;;;;;;;23.60;38.50;;;;;;484073;246;1270;-73
2021/10/09 01:03:35;;;;;;;;;;;23.70;38.20;;;;;;484099;246;934;-73
2021/10/09 01:05:37;;;;;;;;;;;23.70;38.30;;;;;;484085;246;1195;-73
2021/10/09 01:07:38;;;;;;;;;;;23.70;38.20;;;;;;484020;246;1146;-73
2021/10/09 01:09:43;;;;;;;;;;;23.70;38.50;;;;;;484104;246;974;-73
2021/10/09 01:11:41;;;;;;;;;;;23.70;38.00;;;;;;483759;246;1457;-73
2021/10/09 01:13:42;;;;;;;;;;;23.80;37.90;;;;;;484069;246;2121;-73
2021/10/09 01:15:44;;;;;;;;;;;23.80;37.90;;;;;;484053;246;1204;-73
2021/10/09 01:17:45;;;;;;;;;;;23.80;38.10;;;;;;484074;246;1119;-73
2021/10/09 01:19:46;;;;;;;;;;;23.70;38.10;;;;;;484185;246;1068;-73
2021/10/09 01:21:47;;;;;;;;;;;23.60;38.20;;;;;;484116;246;1162;-73
2021/10/09 01:23:49;;;;;;;;;;;23.70;37.90;;;;;;484141;246;1125;-73
2021/10/09 01:25:50;;;;;;;;;;;23.90;37.90;;;;;;484124;246;1297;-73
2021/10/09 01:27:51;;;;;;;;;;;23.70;38.00;;;;;;484039;246;1147;-74
2021/10/09 01:29:53;;;;;;;;;;;23.80;37.90;;;;;;484165;246;982;-73
2021/10/09 01:31:54;;;;;;;;;;;23.70;37.90;;;;;;484037;246;1171;-73
2021/10/09 01:33:56;;;;;;;;;;;23.90;38.00;;;;;;484134;246;991;-73
2021/10/09 01:35:57;;;;;;;;;;;23.80;37.80;;;;;;484070;246;1215;-73
2021/10/09 01:37:58;;;;;;;;;;;23.80;37.70;;;;;;484121;246;1202;-73
2021/10/09 01:40:02;;;;;;;;;;;23.80;37.60;;;;;;484137;246;1058;-73
2021/10/09 01:42:01;;;;;;;;;;;24.10;37.40;;;;;;483883;246;1432;-73
2021/10/09 01:44:02;;;;;;;;;;;23.80;37.60;;;;;;484081;246;941;-73
2021/10/09 01:46:03;;;;;;;;;;;24.00;37.30;;;;;;484077;246;962;-73
2021/10/09 01:48:05;;;;;;;;;;;23.90;37.50;;;;;;484065;246;1064;-74
2021/10/09 01:50:06;;;;;;;;;;;23.80;37.60;;;;;;484107;246;986;-73
2021/10/09 01:52:07;;;;;;;;;;;23.90;37.50;;;;;;484043;242;2208;-73
2021/10/09 01:54:09;;;;;;;;;;;23.70;37.50;;;;;;484125;246;948;-74
2021/10/09 01:56:10;;;;;;;;;;;23.90;37.40;;;;;;484033;246;990;-73
2021/10/09 01:58:11;;;;;;;;;;;23.90;37.40;;;;;;483962;246;983;-73
2021/10/09 02:00:13;;;;;;;;;;;24.00;37.20;;;;;;484058;246;990;-73
2021/10/09 02:02:14;;;;;;;;;;;23.80;37.50;;;;;;484110;246;1248;-73
2021/10/09 02:04:15;;;;;;;;;;;23.90;37.40;;;;;;484095;246;931;-73
2021/10/09 02:06:17;;;;;;;;;;;23.70;37.60;;;;;;484054;246;1153;-73
2021/10/09 02:08:18;;;;;;;;;;;23.60;37.60;;;;;;484046;246;1183;-73
2021/10/09 02:10:19;;;;;;;;;;;23.80;37.50;;;;;;484091;246;927;-73
2021/10/09 02:12:23;;;;;;;;;;;23.80;37.60;;;;;;484137;246;2128;-73
2021/10/09 02:14:26;;;;;;;;;;;23.90;37.50;;;;;;483997;246;1388;-73
2021/10/09 02:19:11;;;;;;;;;;;23.80;37.40;;;;;;467012;246;1189;-73
2021/10/09 02:25:47;;;;;;;;;;;23.80;37.50;;;;;;484145;246;1097;-73
2021/10/09 02:27:49;;;;;;;;;;;23.80;37.60;;;;;;484102;246;1078;-73
2021/10/09 02:29:50;;;;;;;;;;;23.80;37.40;;;;;;484111;246;1039;-73
2021/10/09 02:31:55;;;;;;;;;;;23.90;37.30;;;;;;484048;246;1260;-73
2021/10/09 02:33:52;;;;;;;;;;;23.80;37.30;;;;;;483870;246;2125;-74
2021/10/09 02:35:54;;;;;;;;;;;23.70;37.40;;;;;;484231;246;1228;-74
2021/10/09 02:37:55;;;;;;;;;;;23.70;37.60;;;;;;484084;246;1091;-73
2021/10/09 02:39:57;;;;;;;;;;;23.70;37.50;;;;;;484099;246;969;-73
2021/10/09 02:41:58;;;;;;;;;;;23.80;37.40;;;;;;484052;246;1074;-73
2021/10/09 02:43:59;;;;;;;;;;;23.70;37.30;;;;;;484110;246;1032;-73
2021/10/09 02:46:00;;;;;;;;;;;23.90;37.30;;;;;;484118;246;1273;-73
2021/10/09 02:48:02;;;;;;;;;;;23.80;37.30;;;;;;483975;246;1149;-73
2021/10/09 02:50:03;;;;;;;;;;;23.80;37.30;;;;;;484086;246;1139;-74
2021/10/09 02:52:05;;;;;;;;;;;23.80;37.30;;;;;;484160;246;1178;-73
2021/10/09 02:54:06;;;;;;;;;;;23.80;37.40;;;;;;484121;246;2133;-73
2021/10/09 02:56:07;;;;;;;;;;;23.70;37.50;;;;;;484102;246;1292;-73
2021/10/09 02:58:08;;;;;;;;;;;23.70;37.40;;;;;;484060;246;1105;-73
2021/10/09 03:00:10;;;;;;;;;;;23.70;37.40;;;;;;484079;246;976;-73
2021/10/09 03:02:11;;;;;;;;;;;23.70;37.40;;;;;;484028;246;1054;-73
2021/10/09 03:04:13;;;;;;;;;;;23.60;37.30;;;;;;484025;246;1114;-73
2021/10/09 03:06:14;;;;;;;;;;;23.60;37.50;;;;;;484024;246;1191;-73
2021/10/09 03:08:15;;;;;;;;;;;23.80;37.30;;;;;;484159;246;1093;-73
2021/10/09 03:10:17;;;;;;;;;;;23.70;37.40;;;;;;484131;246;1264;-73
2021/10/09 03:12:18;;;;;;;;;;;23.90;36.90;;;;;;484103;246;1068;-73
2021/10/09 03:14:20;;;;;;;;;;;23.80;37.10;;;;;;484117;246;2175;-73
2021/10/09 03:16:21;;;;;;;;;;;23.80;37.30;;;;;;484105;246;1312;-73
2021/10/09 03:18:22;;;;;;;;;;;23.70;37.30;;;;;;484146;246;1140;-73
2021/10/09 03:20:23;;;;;;;;;;;23.90;37.10;;;;;;484161;246;998;-73
2021/10/09 03:22:25;;;;;;;;;;;23.90;37.00;;;;;;484118;246;1098;-73
2021/10/09 03:24:26;;;;;;;;;;;23.90;37.00;;;;;;484167;246;1149;-73
2021/10/09 03:26:27;;;;;;;;;;;23.80;37.00;;;;;;484093;246;1031;-73
2021/10/09 03:28:29;;;;;;;;;;;23.80;37.30;;;;;;484139;246;958;-73
2021/10/09 03:30:30;;;;;;;;;;;23.80;37.20;;;;;;484070;246;999;-73
2021/10/09 03:32:31;;;;;;;;;;;23.80;37.20;;;;;;484058;246;1106;-73
2021/10/09 03:34:33;;;;;;;;;;;23.90;36.90;;;;;;484041;246;2113;-73
2021/10/09 03:36:34;;;;;;;;;;;23.80;37.10;;;;;;484098;246;1133;-73
2021/10/09 03:38:37;;;;;;;;;;;23.80;36.90;;;;;;484150;246;1172;-73
2021/10/09 03:40:39;;;;;;;;;;;23.80;37.10;;;;;;484023;246;1586;-73
2021/10/09 03:42:42;;;;;;;;;;;23.80;37.10;;;;;;484055;246;1414;-73
2021/10/09 03:44:45;;;;;;;;;;;23.80;36.80;;;;;;483913;246;1479;-73
2021/10/09 03:46:43;;;;;;;;;;;23.60;37.20;;;;;;483782;246;1617;-73
2021/10/09 03:48:59;;;;;;;;;;;23.80;37.00;;;;;;484098;246;1429;-73
2021/10/09 03:53:16;;;;;;;;;;;23.70;37.00;;;;;;484067;246;2113;-73
2021/10/09 03:55:18;;;;;;;;;;;23.90;36.80;;;;;;484085;246;969;-73
2021/10/09 03:57:19;;;;;;;;;;;23.90;36.70;;;;;;483971;246;1122;-73
2021/10/09 03:59:20;;;;;;;;;;;24.00;36.40;;;;;;484092;246;977;-73
2021/10/09 04:01:22;;;;;;;;;;;24.00;36.60;;;;;;484040;246;1114;-73
2021/10/09 04:03:23;;;;;;;;;;;23.80;36.90;;;;;;484136;246;1063;-74
2021/10/09 04:05:24;;;;;;;;;;;23.90;36.80;;;;;;484074;246;945;-73
2021/10/09 04:07:26;;;;;;;;;;;23.90;36.60;;;;;;484071;246;1459;-73
2021/10/09 04:09:27;;;;;;;;;;;23.90;36.90;;;;;;484087;246;1185;-73
2021/10/09 04:11:28;;;;;;;;;;;23.90;36.60;;;;;;484074;246;1269;-73
2021/10/09 04:13:30;;;;;;;;;;;23.80;36.70;;;;;;484140;246;2184;-74
2021/10/09 04:15:31;;;;;;;;;;;23.90;36.70;;;;;;484132;246;936;-73
2021/10/09 04:17:32;;;;;;;;;;;23.90;36.80;;;;;;484122;246;1080;-73
2021/10/09 04:19:34;;;;;;;;;;;23.90;36.70;;;;;;484125;246;940;-73
2021/10/09 04:21:35;;;;;;;;;;;24.00;36.70;;;;;;484098;246;1241;-73
2021/10/09 04:23:36;;;;;;;;;;;23.90;36.50;;;;;;484170;246;1160;-73
2021/10/09 04:25:38;;;;;;;;;;;23.90;36.60;;;;;;484148;246;950;-73
2021/10/09 04:27:39;;;;;;;;;;;23.90;36.60;;;;;;484088;246;1049;-73
2021/10/09 04:29:40;;;;;;;;;;;23.80;36.60;;;;;;484058;246;972;-73
2021/10/09 04:31:42;;;;;;;;;;;23.90;36.60;;;;;;484086;242;1163;-74
2021/10/09 04:33:43;;;;;;;;;;;23.90;36.60;;;;;;484180;246;2148;-74
2021/10/09 04:35:44;;;;;;;;;;;23.90;36.40;;;;;;484101;246;1282;-73
2021/10/09 04:37:46;;;;;;;;;;;23.90;36.60;;;;;;484173;246;1115;-73
2021/10/09 04:39:47;;;;;;;;;;;23.80;36.60;;;;;;484120;246;1136;-73
2021/10/09 04:41:48;;;;;;;;;;;23.90;36.50;;;;;;484042;246;1283;-73
2021/10/09 04:43:50;;;;;;;;;;;24.00;36.40;;;;;;484042;246;1111;-73
2021/10/09 04:45:51;;;;;;;;;;;24.00;36.50;;;;;;484048;246;1346;-73
2021/10/09 04:47:52;;;;;;;;;;;24.10;36.10;;;;;;484086;246;1226;-73
2021/10/09 04:49:54;;;;;;;;;;;24.00;36.30;;;;;;484145;246;945;-73
2021/10/09 04:51:55;;;;;;;;;;;23.90;36.20;;;;;;484034;246;1276;-73
2021/10/09 04:53:57;;;;;;;;;;;23.90;36.50;;;;;;484100;246;2179;-74
2021/10/09 04:55:58;;;;;;;;;;;23.90;36.30;;;;;;484108;246;979;-73
2021/10/09 04:57:59;;;;;;;;;;;24.00;36.20;;;;;;484095;246;1111;-73
2021/10/09 05:00:01;;;;;;;;;;;24.00;36.40;;;;;;484152;246;1117;-73
2021/10/09 05:02:02;;;;;;;;;;;24.10;36.10;;;;;;484140;246;1330;-73
2021/10/09 05:04:03;;;;;;;;;;;24.00;36.30;;;;;;484099;246;947;-73
2021/10/09 05:06:05;;;;;;;;;;;24.10;36.00;;;;;;484069;246;1215;-73
2021/10/09 05:08:06;;;;;;;;;;;23.90;36.30;;;;;;484031;246;1115;-73
2021/10/09 05:10:08;;;;;;;;;;;23.90;36.30;;;;;;484116;246;1167;-73
2021/10/09 05:12:09;;;;;;;;;;;24.00;36.10;;;;;;484098;246;1336;-73
2021/10/09 05:14:10;;;;;;;;;;;24.10;36.10;;;;;;484118;246;2196;-73
2021/10/09 05:16:11;;;;;;;;;;;24.00;36.10;;;;;;484065;246;1228;-73
2021/10/09 05:18:13;;;;;;;;;;;24.00;36.10;;;;;;484064;246;1098;-73
2021/10/09 05:20:14;;;;;;;;;;;24.00;36.00;;;;;;484105;246;954;-73
2021/10/09 05:22:15;;;;;;;;;;;24.10;35.60;;;;;;483982;246;1229;-73
2021/10/09 05:24:17;;;;;;;;;;;24.20;35.90;;;;;;484080;246;1161;-73
2021/10/09 05:26:18;;;;;;;;;;;24.10;35.80;;;;;;484087;246;1018;-73
2021/10/09 05:28:23;;;;;;;;;;;24.40;35.60;;;;;;484054;246;1416;-73
2021/10/09 05:30:21;;;;;;;;;;;24.20;35.70;;;;;;483884;246;1399;-73
2021/10/09 05:32:23;;;;;;;;;;;24.00;35.70;;;;;;484056;246;930;-73
2021/10/09 05:34:23;;;;;;;;;;;24.30;35.50;;;;;;484097;246;2195;-73
2021/10/09 05:36:24;;;;;;;;;;;24.10;35.70;;;;;;484082;246;1108;-73
2021/10/09 05:38:26;;;;;;;;;;;24.40;35.40;;;;;;484117;246;1092;-73
2021/10/09 05:40:27;;;;;;;;;;;24.20;35.50;;;;;;484134;242;1156;-73
2021/10/09 05:42:28;;;;;;;;;;;24.00;35.70;;;;;;484085;246;985;-73
2021/10/09 05:44:30;;;;;;;;;;;24.10;35.70;;;;;;484135;246;1089;-73
2021/10/09 05:46:33;;;;;;;;;;;24.10;35.60;;;;;;484112;246;1100;-73
2021/10/09 05:48:35;;;;;;;;;;;24.20;35.50;;;;;;484065;246;1410;-73
2021/10/09 05:50:41;;;;;;;;;;;24.00;35.60;;;;;;484005;241;1348;-73
2021/10/09 05:52:40;;;;;;;;;;;24.10;35.60;;;;;;483671;246;1564;-73
2021/10/09 05:54:41;;;;;;;;;;;24.10;35.60;;;;;;483733;246;2195;-73
2021/10/09 05:56:47;;;;;;;;;;;24.00;35.50;;;;;;483873;246;1447;-73
2021/10/09 05:58:51;;;;;;;;;;;24.20;35.60;;;;;;483848;246;1425;-73
2021/10/09 06:45:55;;;;;;;;;;;24.00;35.60;;;;;;483868;246;1228;-73
2021/10/09 06:47:49;;;;;;;;;;;24.00;35.60;;;;;;483232;246;1326;-73
2021/10/09 07:01:26;;;;;;;;;;;24.00;35.80;;;;;;484096;246;1266;-73
2021/10/09 07:03:27;;;;;;;;;;;24.10;35.50;;;;;;484069;246;927;-73
2021/10/09 07:05:30;;;;;;;;;;;24.10;35.50;;;;;;484079;246;952;-73
2021/10/09 07:07:33;;;;;;;;;;;24.20;35.60;;;;;;483944;246;1531;-73
2021/10/09 07:09:31;;;;;;;;;;;24.20;35.50;;;;;;483864;246;1447;-73
2021/10/09 07:11:32;;;;;;;;;;;24.10;35.50;;;;;;484136;246;1200;-73
2021/10/09 07:13:34;;;;;;;;;;;24.50;35.10;;;;;;484117;246;959;-73
2021/10/09 07:15:36;;;;;;;;;;;24.20;35.50;;;;;;484109;246;2120;-73
2021/10/09 07:17:37;;;;;;;;;;;24.20;35.50;;;;;;484125;246;1313;-73
2021/10/09 07:19:39;;;;;;;;;;;24.10;35.50;;;;;;484096;246;1099;-73
2021/10/09 07:21:40;;;;;;;;;;;24.10;35.60;;;;;;484126;239;1134;-73
2021/10/09 07:23:41;;;;;;;;;;;24.00;35.80;;;;;;483971;246;922;-73
2021/10/09 07:25:42;;;;;;;;;;;24.10;35.60;;;;;;484052;246;1153;-73
2021/10/09 07:27:45;;;;;;;;;;;24.10;35.70;;;;;;484115;246;1231;-73
2021/10/09 07:29:45;;;;;;;;;;;24.10;35.60;;;;;;484036;246;1500;-73
2021/10/09 07:31:46;;;;;;;;;;;24.30;35.50;;;;;;484106;246;1168;-73
2021/10/09 07:33:48;;;;;;;;;;;24.20;35.60;;;;;;484057;246;957;-73
2021/10/09 07:35:49;;;;;;;;;;;24.30;35.30;;;;;;484085;246;2179;-73
2021/10/09 07:37:50;;;;;;;;;;;24.30;35.40;;;;;;484131;246;1153;-73
2021/10/09 07:39:52;;;;;;;;;;;24.10;35.50;;;;;;484155;246;967;-73
2021/10/09 07:41:53;;;;;;;;;;;24.20;35.70;;;;;;484070;246;1154;-73
2021/10/09 07:43:54;;;;;;;;;;;24.10;35.60;;;;;;484192;246;1047;-73
2021/10/09 07:45:56;;;;;;;;;;;24.10;35.60;;;;;;484130;237;1287;-73
2021/10/09 07:47:57;;;;;;;;;;;24.40;35.50;;;;;;484105;246;1101;-73
2021/10/09 07:49:58;;;;;;;;;;;24.10;35.60;;;;;;484120;246;953;-73
2021/10/09 07:52:00;;;;;;;;;;;24.10;35.60;;;;;;484071;246;1224;-73
2021/10/09 07:54:03;;;;;;;;;;;24.10;35.70;;;;;;484098;246;2240;-73
2021/10/09 07:56:02;;;;;;;;;;;24.00;35.90;;;;;;483905;246;1414;-73
2021/10/09 07:58:04;;;;;;;;;;;24.10;35.80;;;;;;484008;246;1056;-73
2021/10/09 08:00:05;;;;;;;;;;;24.20;35.60;;;;;;484016;246;963;-73
2021/10/09 08:02:06;;;;;;;;;;;24.00;35.90;;;;;;483997;246;1104;-73
2021/10/09 08:04:10;;;;;;;;;;;24.10;35.70;;;;;;484055;246;955;-73
2021/10/09 08:06:09;;;;;;;;;;;24.10;35.90;;;;;;483909;246;1487;-73
2021/10/09 08:08:10;;;;;;;;;;;24.20;35.80;;;;;;484132;246;927;-73
2021/10/09 08:10:12;;;;;;;;;;;24.30;35.70;;;;;;484112;246;970;-73
2021/10/09 08:12:13;;;;;;;;;;;24.20;35.80;;;;;;484074;246;1165;-73
2021/10/09 08:14:14;;;;;;;;;;;24.20;35.70;;;;;;484081;246;2188;-73
2021/10/09 08:16:16;;;;;;;;;;;24.30;35.70;;;;;;484042;246;1302;-73
2021/10/09 08:18:17;;;;;;;;;;;24.10;35.80;;;;;;484127;246;947;-74
2021/10/09 08:20:18;;;;;;;;;;;24.20;35.80;;;;;;484128;246;952;-74
2021/10/09 08:22:21;;;;;;;;;;;24.30;35.90;;;;;;484190;246;1141;-74
2021/10/09 08:24:30;;;;;;;;;;;24.10;35.90;;;;;;484086;246;1475;-74
2021/10/09 08:26:59;;;;;;;;;;;24.10;35.90;;;;;;483759;238;1447;-74
2021/10/09 08:36:15;;;;;;;;;;;24.10;36.20;;;;;;484424;246;2088;-73
2021/10/09 08:40:35;;;;;;;;;;;24.00;36.20;;;;;;484000;246;1141;-74
2021/10/09 08:42:36;;;;;;;;;;;24.00;36.10;;;;;;484017;246;1139;-73
2021/10/09 08:44:38;;;;;;;;;;;24.20;36.10;;;;;;484101;246;1068;-73
2021/10/09 08:46:39;;;;;;;;;;;24.00;36.20;;;;;;483984;246;1449;-73
2021/10/09 08:48:42;;;;;;;;;;;24.20;36.10;;;;;;484066;246;1115;-73
2021/10/09 08:50:42;;;;;;;;;;;24.00;36.20;;;;;;483968;246;1415;-73
2021/10/09 08:52:44;;;;;;;;;;;24.00;36.20;;;;;;484065;246;1066;-73
2021/10/09 08:54:45;;;;;;;;;;;24.00;36.30;;;;;;484135;246;2196;-73
2021/10/09 08:56:47;;;;;;;;;;;24.00;36.20;;;;;;484083;246;1139;-73
2021/10/09 08:58:48;;;;;;;;;;;24.30;36.00;;;;;;484102;246;1391;-73
2021/10/09 09:01:04;;;;;;;;;;;24.00;36.20;;;;;;484133;246;1247;-73
2021/10/09 09:03:05;;;;;;;;;;;24.00;36.40;;;;;;483907;246;1372;-74
2021/10/09 09:05:11;;;;;;;;;;;24.00;36.50;;;;;;483993;246;1378;-73
2021/10/09 09:25:26;;;;;;;;;;;24.10;36.30;;;;;;468259;246;1265;-73
2021/10/09 09:26:04;;;;;;;;;;;24.50;36.00;;;;;;484021;246;1166;-73
2021/10/09 09:33:04;;;;;;;;;;;24.30;36.30;;;;;;484065;246;1145;-73
2021/10/09 09:37:43;;;;;;;;;;;24.40;35.90;;;;;;477217;246;1214;-73
2021/10/09 09:39:42;;;;;;;;;;;24.50;35.60;;;;;;483978;246;1407;-73
2021/10/09 09:41:43;;;;;;;;;;;24.80;35.60;;;;;;484073;246;1094;-73
2021/10/09 09:43:45;;;;;;;;;;;24.50;35.90;;;;;;484155;246;1142;-73
2021/10/09 09:45:46;;;;;;;;;;;24.40;35.90;;;;;;484160;246;948;-73
2021/10/09 09:47:47;;;;;;;;;;;24.30;36.20;;;;;;484037;246;1151;-74
2021/10/09 09:49:49;;;;;;;;;;;24.40;36.10;;;;;;484128;246;1026;-73
2021/10/09 09:51:50;;;;;;;;;;;24.30;36.30;;;;;;484063;246;1165;-74
2021/10/09 09:53:51;;;;;;;;;;;24.30;36.10;;;;;;484134;246;1136;-74
2021/10/09 09:55:53;;;;;;;;;;;24.50;36.10;;;;;;484102;246;2176;-74
2021/10/09 09:57:54;;;;;;;;;;;24.40;36.00;;;;;;484059;246;1143;-73
2021/10/09 09:59:55;;;;;;;;;;;24.40;36.10;;;;;;484142;246;1107;-73
2021/10/09 10:01:57;;;;;;;;;;;24.60;35.80;;;;;;484047;246;1233;-73
2021/10/09 10:03:58;;;;;;;;;;;24.40;36.20;;;;;;484091;246;1124;-73
2021/10/09 10:06:00;;;;;;;;;;;24.50;36.10;;;;;;484027;246;1226;-73
2021/10/09 10:08:01;;;;;;;;;;;24.60;36.00;;;;;;484063;246;1266;-74
2021/10/09 10:10:02;;;;;;;;;;;24.40;36.20;;;;;;484189;246;926;-73
2021/10/09 10:12:03;;;;;;;;;;;24.40;36.40;;;;;;483997;246;1106;-73
2021/10/09 10:14:04;;;;;;;;;;;24.40;36.40;;;;;;484073;246;1219;-74
2021/10/09 10:16:06;;;;;;;;;;;24.60;36.10;;;;;;484058;246;2191;-74
2021/10/09 10:18:08;;;;;;;;;;;24.60;36.30;;;;;;484133;246;1150;-74
2021/10/09 10:20:09;;;;;;;;;;;24.50;36.00;;;;;;484090;246;979;-74
2021/10/09 10:22:10;;;;;;;;;;;24.70;36.00;;;;;;483993;246;1084;-73
2021/10/09 10:24:12;;;;;;;;;;;24.70;36.00;;;;;;484145;246;968;-73
2021/10/09 10:26:13;;;;;;;;;;;24.50;36.20;;;;;;484104;242;1180;-73
2021/10/09 10:28:17;;;;;;;;;;;24.50;36.20;;;;;;484120;246;1178;-74
2021/10/09 10:30:16;;;;;;;;;;;24.60;36.10;;;;;;484005;246;1490;-74
2021/10/09 10:32:19;;;;;;;;;;;24.80;36.00;;;;;;484175;246;1114;-74
2021/10/09 10:34:19;;;;;;;;;;;24.60;36.00;;;;;;484103;246;1417;-74
2021/10/09 10:36:21;;;;;;;;;;;24.60;36.00;;;;;;484102;239;2188;-74
2021/10/09 10:38:22;;;;;;;;;;;24.50;36.20;;;;;;484114;246;944;-74
2021/10/09 10:40:23;;;;;;;;;;;24.50;36.40;;;;;;483982;246;1122;-73
2021/10/09 10:42:25;;;;;;;;;;;24.70;36.30;;;;;;483985;246;1176;-73
2021/10/09 10:44:26;;;;;;;;;;;24.70;36.20;;;;;;484039;246;1121;-73
2021/10/09 10:46:29;;;;;;;;;;;24.60;36.20;;;;;;483973;246;1223;-73
2021/10/09 10:48:29;;;;;;;;;;;24.50;36.30;;;;;;484096;246;1455;-74
2021/10/09 10:50:30;;;;;;;;;;;24.50;36.50;;;;;;484192;246;1307;-73
2021/10/09 10:52:38;;;;;;;;;;;24.70;36.10;;;;;;484105;246;1176;-73
2021/10/09 10:54:35;;;;;;;;;;;24.80;36.20;;;;;;483672;246;1289;-74
2021/10/09 10:56:36;;;;;;;;;;;24.60;36.20;;;;;;484088;246;2125;-74
2021/10/09 10:58:37;;;;;;;;;;;24.70;36.30;;;;;;484103;246;1399;-73
2021/10/09 11:00:38;;;;;;;;;;;24.60;36.20;;;;;;484123;246;1198;-73
2021/10/09 11:02:39;;;;;;;;;;;24.60;36.30;;;;;;484097;246;1115;-73
2021/10/09 11:04:41;;;;;;;;;;;24.80;36.20;;;;;;484211;246;1050;-73
2021/10/09 11:06:42;;;;;;;;;;;24.60;36.50;;;;;;484170;246;1226;-74
2021/10/09 11:08:43;;;;;;;;;;;24.70;36.50;;;;;;484177;246;1225;-74
2021/10/09 11:10:45;;;;;;;;;;;24.70;36.40;;;;;;484168;246;925;-73
2021/10/09 11:12:46;;;;;;;;;;;24.80;36.30;;;;;;484092;246;1199;-73
2021/10/09 11:14:47;;;;;;;;;;;24.80;36.30;;;;;;484185;246;1141;-73
2021/10/09 11:16:49;;;;;;;;;;;24.60;36.40;;;;;;484135;246;2125;-73
2021/10/09 11:18:50;;;;;;;;;;;24.80;36.20;;;;;;484187;246;1164;-73
2021/10/09 11:20:52;;;;;;;;;;;24.90;36.20;;;;;;484142;246;1201;-73
2021/10/09 11:22:53;;;;;;;;;;;24.70;36.30;;;;;;484097;246;1161;-74
2021/10/09 11:24:54;;;;;;;;;;;24.70;36.40;;;;;;484116;246;1114;-73
2021/10/09 11:26:55;;;;;;;;;;;25.10;36.00;;;;;;484086;246;1198;-73
2021/10/09 11:28:57;;;;;;;;;;;24.80;36.30;;;;;;484097;246;1156;-74
2021/10/09 11:30:58;;;;;;;;;;;25.10;36.00;;;;;;484076;246;1205;-73
2021/10/09 11:32:59;;;;;;;;;;;24.70;36.40;;;;;;484030;246;1101;-73
2021/10/09 11:35:01;;;;;;;;;;;24.70;36.60;;;;;;484070;246;961;-74
2021/10/09 11:37:02;;;;;;;;;;;24.60;36.70;;;;;;484031;246;2121;-74
2021/10/09 11:39:08;;;;;;;;;;;24.70;36.40;;;;;;484193;246;1213;-73
2021/10/09 11:41:05;;;;;;;;;;;24.70;36.70;;;;;;483782;246;1538;-73
2021/10/09 11:43:14;;;;;;;;;;;24.80;36.50;;;;;;484178;246;1600;-74
2021/10/09 11:45:17;;;;;;;;;;;24.50;36.70;;;;;;483975;246;1421;-73
2021/10/09 11:54:28;;;;;;;;;;;24.70;36.30;;;;;;484157;246;1212;-73
2021/10/09 11:56:25;;;;;;;;;;;24.60;36.60;;;;;;483846;246;2195;-73
2021/10/09 11:58:26;;;;;;;;;;;24.60;36.60;;;;;;484086;246;953;-73
2021/10/09 12:00:27;;;;;;;;;;;24.60;36.50;;;;;;484161;246;1167;-74
2021/10/09 12:02:29;;;;;;;;;;;24.90;36.10;;;;;;484080;246;961;-74
2021/10/09 12:04:30;;;;;;;;;;;25.00;35.70;;;;;;484103;246;949;-74
2021/10/09 12:06:31;;;;;;;;;;;24.70;36.10;;;;;;484040;246;965;-74
2021/10/09 12:08:40;;;;;;;;;;;24.50;36.20;;;;;;484139;246;949;-74
2021/10/09 12:10:34;;;;;;;;;;;24.60;36.20;;;;;;483683;246;1442;-73
2021/10/09 12:12:35;;;;;;;;;;;24.80;36.20;;;;;;484130;246;968;-73
2021/10/09 12:14:37;;;;;;;;;;;24.50;36.30;;;;;;484152;246;1149;-73
2021/10/09 12:16:38;;;;;;;;;;;24.80;36.20;;;;;;484138;246;2192;-73
2021/10/09 12:18:39;;;;;;;;;;;24.50;36.40;;;;;;484125;246;1255;-73
2021/10/09 12:20:41;;;;;;;;;;;24.60;36.20;;;;;;484138;246;953;-73
2021/10/09 12:22:42;;;;;;;;;;;24.50;36.40;;;;;;484115;246;1411;-73
2021/10/09 12:24:44;;;;;;;;;;;24.60;36.10;;;;;;484162;246;977;-73
2021/10/09 12:26:45;;;;;;;;;;;24.80;36.00;;;;;;484038;246;1119;-74
2021/10/09 12:28:46;;;;;;;;;;;24.80;35.90;;;;;;483972;246;1005;-74
2021/10/09 12:30:48;;;;;;;;;;;24.60;35.90;;;;;;483957;246;1156;-74
2021/10/09 12:32:49;;;;;;;;;;;24.60;35.80;;;;;;484029;246;1510;-74
2021/10/09 12:34:50;;;;;;;;;;;24.60;35.90;;;;;;484073;246;1093;-74
2021/10/09 12:36:52;;;;;;;;;;;24.70;35.60;;;;;;484038;246;2129;-74
2021/10/09 12:38:53;;;;;;;;;;;24.60;35.90;;;;;;484107;246;966;-74
2021/10/09 12:40:54;;;;;;;;;;;24.60;35.80;;;;;;484127;246;1224;-74
2021/10/09 12:42:56;;;;;;;;;;;24.40;36.00;;;;;;484097;246;1013;-74
2021/10/09 12:44:57;;;;;;;;;;;24.40;36.10;;;;;;484025;246;1220;-74
2021/10/09 12:46:59;;;;;;;;;;;24.30;36.20;;;;;;483984;246;1192;-74
2021/10/09 12:49:00;;;;;;;;;;;24.60;35.70;;;;;;484063;246;1101;-74
2021/10/09 12:51:01;;;;;;;;;;;24.60;35.70;;;;;;484098;246;1220;-74
2021/10/09 12:53:02;;;;;;;;;;;24.50;35.90;;;;;;484166;246;1062;-74
2021/10/09 12:55:04;;;;;;;;;;;24.50;36.00;;;;;;484149;246;938;-73
2021/10/09 12:57:05;;;;;;;;;;;24.50;35.80;;;;;;484084;246;2128;-73
2021/10/09 12:59:06;;;;;;;;;;;24.50;35.90;;;;;;484087;246;911;-73
2021/10/09 13:01:08;;;;;;;;;;;24.80;35.50;;;;;;484086;246;1228;-73
2021/10/09 13:03:10;;;;;;;;;;;24.60;35.40;;;;;;484048;246;1109;-74
2021/10/09 13:05:11;;;;;;;;;;;24.80;35.10;;;;;;484089;246;992;-73
2021/10/09 13:07:12;;;;;;;;;;;24.80;35.10;;;;;;484049;246;1171;-73
2021/10/09 13:09:15;;;;;;;;;;;24.60;35.20;;;;;;484100;246;940;-73
2021/10/09 13:11:20;;;;;;;;;;;24.70;35.30;;;;;;484013;246;1481;-73
2021/10/09 13:13:16;;;;;;;;;;;24.80;34.90;;;;;;483784;246;1439;-73
2021/10/09 13:15:18;;;;;;;;;;;24.80;34.90;;;;;;484088;246;1200;-74
2021/10/09 13:17:19;;;;;;;;;;;24.60;35.10;;;;;;484091;246;2188;-73
2021/10/09 13:19:20;;;;;;;;;;;24.70;35.20;;;;;;484069;246;963;-73
2021/10/09 13:21:23;;;;;;;;;;;24.80;35.00;;;;;;484094;242;1193;-73
2021/10/09 13:23:23;;;;;;;;;;;24.50;35.30;;;;;;483941;246;1474;-73
2021/10/09 13:25:24;;;;;;;;;;;24.60;35.10;;;;;;484026;246;961;-73
2021/10/09 13:27:26;;;;;;;;;;;24.60;35.10;;;;;;483994;246;1122;-73
2021/10/09 13:29:27;;;;;;;;;;;24.80;34.80;;;;;;484088;246;1087;-74
2021/10/09 13:31:28;;;;;;;;;;;24.60;35.10;;;;;;483973;246;1291;-73
2021/10/09 13:33:30;;;;;;;;;;;24.50;35.30;;;;;;484100;246;995;-73
2021/10/09 13:35:31;;;;;;;;;;;24.50;35.30;;;;;;484127;246;1015;-73
2021/10/09 13:37:37;;;;;;;;;;;24.50;35.00;;;;;;484108;246;2136;-73
2021/10/09 13:39:34;;;;;;;;;;;24.80;34.90;;;;;;483805;246;1424;-73
2021/10/09 13:41:36;;;;;;;;;;;24.80;34.80;;;;;;484012;246;1233;-73
2021/10/09 13:43:37;;;;;;;;;;;24.70;34.80;;;;;;484120;246;1134;-73
2021/10/09 13:45:38;;;;;;;;;;;24.50;35.00;;;;;;484068;246;1115;-74
2021/10/09 13:47:39;;;;;;;;;;;24.60;34.90;;;;;;484124;246;1075;-74